createdAt,value
2023-03-27T07:42:04.013Z,99416.00
2023-03-27T07:47:12.442Z,99420.40
2023-03-27T07:52:16.491Z,99419.40
2023-03-27T07:57:19.849Z,99401.20
2023-03-27T08:02:23.371Z,99435.00
2023-03-27T08:07:26.183Z,99443.20
2023-03-27T08:12:29.720Z,99464.40
2023-03-27T08:17:33.916Z,99477.20
2023-03-27T08:22:38.474Z,99443.60
2023-03-27T08:27:41.703Z,99483.20
2023-03-27T08:32:45.133Z,99495.60
2023-03-27T08:37:48.447Z,99504.20
2023-03-27T08:42:57.476Z,99462.20
2023-03-27T08:48:44.020Z,99472.00
2023-03-27T08:54:17.350Z,99486.80
2023-03-27T08:59:25.420Z,99471.20
2023-03-27T09:05:06.441Z,99455.80
2023-03-27T09:10:39.870Z,99443.40
2023-03-27T09:16:01.000Z,99486.40
2023-03-27T09:21:55.110Z,99498.20
2023-03-27T09:27:07.513Z,99511.20
2023-03-27T09:32:16.135Z,99506.60
2023-03-27T09:37:18.966Z,99520.00
2023-03-27T09:42:38.208Z,99519.60
2023-03-27T09:47:53.148Z,99523.00
2023-03-27T09:53:14.299Z,99543.20
2023-03-27T09:58:34.174Z,99562.00
2023-03-27T10:03:43.010Z,99568.40
2023-03-27T10:09:01.071Z,99599.60
2023-03-27T10:14:16.334Z,99601.60
2023-03-27T10:19:29.475Z,99609.60
2023-03-27T10:24:36.041Z,99622.20
2023-03-27T10:29:47.419Z,99621.80
2023-03-27T10:34:58.113Z,99633.00
2023-03-27T10:40:09.317Z,99644.80
2023-03-27T10:45:51.590Z,99658.00
2023-03-27T10:51:05.550Z,99667.60
2023-03-27T10:56:40.783Z,99680.60
2023-03-27T11:01:52.561Z,99688.40
2023-03-27T11:07:01.017Z,99700.40
2023-03-27T11:12:09.406Z,99707.00
2023-03-27T11:17:20.220Z,99732.60
2023-03-27T11:22:33.832Z,99744.60
2023-03-27T11:27:50.063Z,99747.60
2023-03-27T11:33:27.816Z,99763.20
2023-03-27T11:47:35.726Z,99793.80
2023-03-27T11:53:17.209Z,99787.20
2023-03-27T11:59:00.415Z,99803.60
2023-03-27T12:04:11.291Z,99808.40
2023-03-27T12:09:37.962Z,99803.40
2023-03-27T12:15:23.130Z,99823.00
2023-03-27T12:20:54.372Z,99812.80
2023-03-27T12:26:31.132Z,99816.60
2023-03-27T12:32:00.276Z,99814.20
2023-03-27T12:37:06.774Z,99829.80
2023-03-27T12:42:16.052Z,99829.60
2023-03-27T12:47:25.387Z,99829.80
2023-03-27T12:52:28.685Z,99841.20
2023-03-27T12:57:34.721Z,99838.60
2023-03-27T13:03:14.719Z,99845.20
2023-03-27T13:09:08.284Z,99852.00
2023-03-27T13:15:07.169Z,99858.80
2023-03-27T13:20:28.647Z,99860.40
2023-03-27T13:26:02.156Z,99875.80
2023-03-27T13:31:11.766Z,99879.20
2023-03-27T13:36:19.902Z,99882.00
2023-03-27T13:41:49.831Z,99878.00
2023-03-27T13:47:02.238Z,99870.40
2023-03-27T13:52:59.032Z,99884.60
2023-03-27T13:58:46.310Z,99908.00
2023-03-27T14:04:36.499Z,99925.40
2023-03-27T14:10:13.929Z,99941.80
2023-03-27T14:15:35.462Z,99941.20
2023-03-27T14:21:09.992Z,99947.40
2023-03-27T14:26:24.653Z,99965.00
2023-03-27T14:31:35.339Z,99956.80
2023-03-27T14:36:47.490Z,99964.80
2023-03-27T14:42:01.643Z,99978.80
2023-03-27T14:47:12.555Z,99997.00
2023-03-27T14:52:25.053Z,100007.20
2023-03-27T14:57:28.456Z,100018.60
2023-03-27T15:02:35.245Z,100024.00
2023-03-27T15:07:38.599Z,100038.80
2023-03-27T15:12:47.920Z,100053.20
2023-03-27T15:17:55.363Z,100064.80
2023-03-27T15:23:19.077Z,100074.40
2023-03-27T15:28:42.406Z,100080.80
2023-03-27T15:34:14.197Z,100091.20
2023-03-27T15:39:22.262Z,100097.20
2023-03-27T15:44:33.550Z,100101.60
2023-03-27T15:49:41.554Z,100123.40
2023-03-27T15:54:55.877Z,100132.00
2023-03-27T16:00:09.985Z,100144.00
2023-03-27T16:05:17.829Z,100153.60
2023-03-27T16:10:32.847Z,100153.20
2023-03-27T16:15:41.819Z,100167.20
2023-03-27T16:20:45.054Z,100180.40
2023-03-27T16:25:47.954Z,100178.20
2023-03-27T16:30:51.291Z,100189.80
2023-03-27T16:35:56.513Z,100200.40
2023-03-27T16:40:59.654Z,100197.00
2023-03-27T16:46:06.587Z,100214.80
2023-03-27T16:51:09.387Z,100215.60
2023-03-27T16:56:13.874Z,100216.60
2023-03-27T17:01:16.742Z,100221.20
2023-03-27T17:06:21.971Z,100232.40
2023-03-27T17:11:25.593Z,100232.20
2023-03-27T17:16:28.944Z,100242.20
2023-03-27T17:21:32.212Z,100242.40
2023-03-27T17:26:36.980Z,100248.20
2023-03-27T17:31:41.110Z,100236.40
2023-03-27T17:36:54.023Z,100254.00
2023-03-27T17:41:57.856Z,100256.80
2023-03-27T17:47:01.116Z,100254.80
2023-03-27T17:52:08.263Z,100257.60
2023-03-27T17:57:11.468Z,100272.20
2023-03-27T18:02:21.054Z,100270.80
2023-03-27T18:07:24.486Z,100277.40
2023-03-27T18:12:27.395Z,100277.80
2023-03-27T18:17:30.793Z,100279.40
2023-03-27T18:22:33.884Z,100283.40
2023-03-27T18:27:43.410Z,100280.60
2023-03-27T18:32:46.878Z,100295.40
2023-03-27T18:37:49.859Z,100291.00
2023-03-27T18:42:53.136Z,100297.00
2023-03-27T18:47:56.103Z,100303.00
2023-03-27T18:52:59.420Z,100303.40
2023-03-27T18:58:02.523Z,100308.20
2023-03-27T19:03:06.703Z,100306.60
2023-03-27T19:08:10.322Z,100306.00
2023-03-27T19:13:13.182Z,100307.80
2023-03-27T19:18:37.063Z,100305.80
2023-03-27T19:23:39.911Z,100308.60
2023-03-27T19:28:44.298Z,100307.60
2023-03-27T19:33:47.244Z,100293.80
2023-03-27T19:38:51.402Z,100314.00
2023-03-27T19:43:54.204Z,100308.60
2023-03-27T19:48:57.008Z,100295.20
2023-03-27T19:54:00.089Z,100288.60
2023-03-27T19:59:05.173Z,100285.40
2023-03-27T20:04:08.098Z,100284.20
2023-03-27T20:09:12.562Z,100280.60
2023-03-27T20:14:15.449Z,100280.00
2023-03-27T20:19:20.270Z,100282.00
2023-03-27T20:24:25.972Z,100285.20
2023-03-27T20:29:28.960Z,100279.00
2023-03-27T20:34:32.272Z,100276.60
2023-03-27T20:39:35.170Z,100262.60
2023-03-27T20:44:37.932Z,100258.80
2023-03-27T20:49:45.825Z,100252.40
2023-03-27T20:54:48.615Z,100248.20
2023-03-27T20:59:54.078Z,100254.80
2023-03-27T21:04:56.812Z,100253.80
2023-03-27T21:10:00.998Z,100242.00
2023-03-27T21:15:04.172Z,100242.60
2023-03-27T21:20:09.544Z,100238.20
2023-03-27T21:25:12.428Z,100242.00
2023-03-27T21:30:16.489Z,100227.00
2023-03-27T21:35:19.583Z,100229.20
2023-03-27T21:40:25.678Z,100230.40
2023-03-27T21:45:28.475Z,100231.20
2023-03-27T21:50:31.378Z,100226.60
2023-03-27T21:55:34.873Z,100219.40
2023-03-27T22:00:37.795Z,100219.60
2023-03-27T22:05:40.887Z,100225.20
2023-03-27T22:10:43.668Z,100233.20
2023-03-27T22:15:46.519Z,100232.80
2023-03-27T22:20:49.402Z,100234.60
2023-03-27T22:25:56.068Z,100230.80
2023-03-27T22:30:58.939Z,100230.40
2023-03-27T22:36:02.256Z,100228.40
2023-03-27T22:41:08.488Z,100227.00
2023-03-27T22:46:18.473Z,100229.40
2023-03-27T22:51:21.279Z,100226.40
2023-03-27T22:56:24.708Z,100229.80
2023-03-27T23:01:27.674Z,100219.60
2023-03-27T23:06:31.050Z,100213.40
2023-03-27T23:11:33.866Z,100214.20
2023-03-27T23:16:37.017Z,100206.80
2023-03-27T23:21:39.909Z,100212.00
2023-03-27T23:26:42.671Z,100212.00
2023-03-27T23:31:45.810Z,100212.80
2023-03-27T23:36:48.802Z,100209.20
2023-03-27T23:41:51.579Z,100210.00
2023-03-27T23:46:54.370Z,100208.40
2023-03-27T23:51:57.363Z,100209.00
2023-03-27T23:57:00.209Z,100211.80
